Ralph, South Dakota
Current Conditions -  °F | °C
As of 2:53 PM on Tuesday 25 Nov 2014 (Local Time) from KHEI Reporting Station
Broken Clouds Broken Clouds  
Wind Chill: 25°   Ceiling: 3400
Heat Index: 36°   Visibility: 10mi
Dew Point: 29°   Wind: 21mph
Humidity: 76%   Direction: 300°WNW
Pressure: 29.72"   Gusts: 29mph
Location:  45.77°N, 103.07°W
Report Text: KHEI 252153Z AUTO 30018G25KT 10SM FEW027 BKN034 02/M02 A2972 RMK AO2 PK WND 29027/2128 SLP093 T00221017
Loading
Personal Weather Stations






























Interactive Weather Map New forecast layout! Learn more

10-Day Weather Forecast

Advertisements
Track Severe Weather on mobile